sensor_id;sensor_type;location;lat;lon;timestamp;temperature;humidity
3023;DHT22;1521;53.584;9.938;2023-03-01T00:02:12;-0.80;1.00
3023;DHT22;1521;53.584;9.938;2023-03-01T00:04:37;-0.90;1.00
3023;DHT22;1521;53.584;9.938;2023-03-01T00:07:03;-0.90;1.00
3023;DHT22;1521;53.584;9.938;2023-03-01T00:09:28;-0.80;1.00
3023;DHT22;1521;53.584;9.938;2023-03-01T00:11:54;-0.80;1.00
3023;DHT22;1521;53.584;9.938;2023-03-01T00:14:20;-0.80;1.00
3023;DHT22;1521;53.584;9.938;2023-03-01T00:16:45;-0.80;1.00
3023;DHT22;1521;53.584;9.938;2023-03-01T00:19:13;-0.80;1.00
3023;DHT22;1521;53.584;9.938;2023-03-01T00:21:40;-0.80;1.00
3023;DHT22;1521;53.584;9.938;2023-03-01T00:24:06;-0.80;1.00
3023;DHT22;1521;53.584;9.938;2023-03-01T00:26:32;-0.80;1.00
3023;DHT22;1521;53.584;9.938;2023-03-01T00:28:58;-0.80;1.00
3023;DHT22;1521;53.584;9.938;2023-03-01T00:31:26;-0.80;1.00
3023;DHT22;1521;53.584;9.938;2023-03-01T00:33:54;-0.80;1.00
3023;DHT22;1521;53.584;9.938;2023-03-01T00:36:25;-0.80;1.00
3023;DHT22;1521;53.584;9.938;2023-03-01T00:38:51;-0.80;1.00
3023;DHT22;1521;53.584;9.938;2023-03-01T00:41:18;-0.80;1.00
3023;DHT22;1521;53.584;9.938;2023-03-01T00:43:44;-0.80;1.00
3023;DHT22;1521;53.584;9.938;2023-03-01T00:46:19;-0.80;1.00
3023;DHT22;1521;53.584;9.938;2023-03-01T00:48:45;-0.80;1.00
3023;DHT22;1521;53.584;9.938;2023-03-01T00:51:16;-0.80;1.00
3023;DHT22;1521;53.584;9.938;2023-03-01T00:53:42;-0.80;1.00
3023;DHT22;1521;53.584;9.938;2023-03-01T00:56:09;-0.70;1.00
3023;DHT22;1521;53.584;9.938;2023-03-01T00:58:36;-0.70;1.00
3023;DHT22;1521;53.584;9.938;2023-03-01T01:01:11;-0.70;1.00
3023;DHT22;1521;53.584;9.938;2023-03-01T01:06:38;-0.70;1.00
3023;DHT22;1521;53.584;9.938;2023-03-01T01:09:06;-0.70;1.00
3023;DHT22;1521;53.584;9.938;2023-03-01T01:11:32;-0.70;1.00
3023;DHT22;1521;53.584;9.938;2023-03-01T01:13:58;-0.70;1.00
3023;DHT22;1521;53.584;9.938;2023-03-01T01:16:25;-0.70;1.00
3023;DHT22;1521;53.584;9.938;2023-03-01T01:18:52;-0.70;1.00
3023;DHT22;1521;53.584;9.938;2023-03-01T01:21:20;-0.70;1.00
3023;DHT22;1521;53.584;9.938;2023-03-01T01:23:46;-0.70;1.00
3023;DHT22;1521;53.584;9.938;2023-03-01T01:26:20;-0.70;1.00
3023;DHT22;1521;53.584;9.938;2023-03-01T01:28:46;-0.70;1.00
3023;DHT22;1521;53.584;9.938;2023-03-01T01:31:12;-0.80;1.00
3023;DHT22;1521;53.584;9.938;2023-03-01T01:33:38;-0.80;1.00
3023;DHT22;1521;53.584;9.938;2023-03-01T01:36:05;-0.80;1.00
3023;DHT22;1521;53.584;9.938;2023-03-01T01:38:31;-0.90;1.00
3023;DHT22;1521;53.584;9.938;2023-03-01T01:40:57;-0.90;1.00
3023;DHT22;1521;53.584;9.938;2023-03-01T01:43:28;-1.00;1.00
3023;DHT22;1521;53.584;9.938;2023-03-01T01:45:59;-1.00;1.00
3023;DHT22;1521;53.584;9.938;2023-03-01T01:48:39;-1.10;1.00
3023;DHT22;1521;53.584;9.938;2023-03-01T01:51:13;-1.10;1.00
3023;DHT22;1521;53.584;9.938;2023-03-01T01:53:41;-1.10;1.00
3023;DHT22;1521;53.584;9.938;2023-03-01T01:56:11;-1.10;1.00
3023;DHT22;1521;53.584;9.938;2023-03-01T01:58:38;-1.10;1.00
3023;DHT22;1521;53.584;9.938;2023-03-01T02:01:05;-1.10;1.00
3023;DHT22;1521;53.584;9.938;2023-03-01T02:03:33;-1.10;1.00
3023;DHT22;1521;53.584;9.938;2023-03-01T02:06:23;-1.10;1.00
3023;DHT22;1521;53.584;9.938;2023-03-01T02:08:57;-1.10;1.90
3023;DHT22;1521;53.584;9.938;2023-03-01T02:11:25;-1.10;12.40
3023;DHT22;1521;53.584;9.938;2023-03-01T02:13:52;-1.10;19.20
3023;DHT22;1521;53.584;9.938;2023-03-01T02:16:19;-1.00;20.00
3023;DHT22;1521;53.584;9.938;2023-03-01T02:18:45;-1.00;17.70
3023;DHT22;1521;53.584;9.938;2023-03-01T02:23:54;-1.00;29.60
3023;DHT22;1521;53.584;9.938;2023-03-01T02:26:40;-1.00;29.10
3023;DHT22;1521;53.584;9.938;2023-03-01T02:29:07;-1.00;31.70
3023;DHT22;1521;53.584;9.938;2023-03-01T02:31:33;-1.00;29.40
3023;DHT22;1521;53.584;9.938;2023-03-01T02:34:14;-1.00;33.30
3023;DHT22;1521;53.584;9.938;2023-03-01T02:36:55;-0.90;23.40
3023;DHT22;1521;53.584;9.938;2023-03-01T02:39:25;-0.90;15.70
3023;DHT22;1521;53.584;9.938;2023-03-01T02:41:54;-0.90;18.10
3023;DHT22;1521;53.584;9.938;2023-03-01T02:44:21;-0.90;13.70
3023;DHT22;1521;53.584;9.938;2023-03-01T02:46:49;-0.90;19.30
3023;DHT22;1521;53.584;9.938;2023-03-01T02:49:27;-0.90;12.90
3023;DHT22;1521;53.584;9.938;2023-03-01T02:52:21;-0.90;17.60
3023;DHT22;1521;53.584;9.938;2023-03-01T02:57:34;-0.80;1.80
3023;DHT22;1521;53.584;9.938;2023-03-01T03:00:07;-0.80;1.00
3023;DHT22;1521;53.584;9.938;2023-03-01T03:02:34;-0.80;1.00
3023;DHT22;1521;53.584;9.938;2023-03-01T03:05:10;-0.80;1.00
3023;DHT22;1521;53.584;9.938;2023-03-01T03:07:38;-0.90;1.00
3023;DHT22;1521;53.584;9.938;2023-03-01T03:10:07;-0.90;1.00
3023;DHT22;1521;53.584;9.938;2023-03-01T03:12:33;-0.90;1.00
3023;DHT22;1521;53.584;9.938;2023-03-01T03:14:59;-0.90;1.00
3023;DHT22;1521;53.584;9.938;2023-03-01T03:17:24;-0.90;1.00
3023;DHT22;1521;53.584;9.938;2023-03-01T03:19:50;-0.90;1.00
3023;DHT22;1521;53.584;9.938;2023-03-01T03:22:16;-0.90;1.00
3023;DHT22;1521;53.584;9.938;2023-03-01T03:24:41;-0.90;1.00
3023;DHT22;1521;53.584;9.938;2023-03-01T03:27:08;-0.90;1.00
3023;DHT22;1521;53.584;9.938;2023-03-01T03:29:34;-0.80;1.00
3023;DHT22;1521;53.584;9.938;2023-03-01T03:31:59;-0.80;1.00
3023;DHT22;1521;53.584;9.938;2023-03-01T03:34:25;-0.70;1.00
3023;DHT22;1521;53.584;9.938;2023-03-01T03:36:54;-0.70;1.00
3023;DHT22;1521;53.584;9.938;2023-03-01T03:39:25;-0.60;1.00
3023;DHT22;1521;53.584;9.938;2023-03-01T03:41:52;-0.60;1.00
3023;DHT22;1521;53.584;9.938;2023-03-01T03:44:18;-0.50;1.00
3023;DHT22;1521;53.584;9.938;2023-03-01T03:46:44;-0.50;1.00
3023;DHT22;1521;53.584;9.938;2023-03-01T03:49:09;-0.40;1.00
3023;DHT22;1521;53.584;9.938;2023-03-01T03:51:35;-0.30;1.00
3023;DHT22;1521;53.584;9.938;2023-03-01T03:54:00;-0.20;1.00
3023;DHT22;1521;53.584;9.938;2023-03-01T03:56:26;-0.10;1.00
3023;DHT22;1521;53.584;9.938;2023-03-01T03:58:52;0.00;1.00
3023;DHT22;1521;53.584;9.938;2023-03-01T04:01:18;0.00;1.00
3023;DHT22;1521;53.584;9.938;2023-03-01T04:03:43;0.10;1.00
3023;DHT22;1521;53.584;9.938;2023-03-01T04:06:13;0.10;1.00
3023;DHT22;1521;53.584;9.938;2023-03-01T04:08:39;0.20;1.00
3023;DHT22;1521;53.584;9.938;2023-03-01T04:11:05;0.20;1.00
3023;DHT22;1521;53.584;9.938;2023-03-01T04:13:51;0.30;1.00
3023;DHT22;1521;53.584;9.938;2023-03-01T04:16:17;0.30;1.00
3023;DHT22;1521;53.584;9.938;2023-03-01T04:18:43;0.40;1.00
3023;DHT22;1521;53.584;9.938;2023-03-01T04:21:09;0.40;1.00
3023;DHT22;1521;53.584;9.938;2023-03-01T04:23:37;0.50;1.00
3023;DHT22;1521;53.584;9.938;2023-03-01T04:26:03;0.50;1.00
3023;DHT22;1521;53.584;9.938;2023-03-01T04:28:34;0.60;1.00
3023;DHT22;1521;53.584;9.938;2023-03-01T04:31:06;0.60;1.00
3023;DHT22;1521;53.584;9.938;2023-03-01T04:33:59;0.60;1.00
3023;DHT22;1521;53.584;9.938;2023-03-01T04:36:27;0.60;1.00
3023;DHT22;1521;53.584;9.938;2023-03-01T04:38:53;0.70;1.00
3023;DHT22;1521;53.584;9.938;2023-03-01T04:41:21;0.70;1.00
3023;DHT22;1521;53.584;9.938;2023-03-01T04:43:47;0.70;1.00
3023;DHT22;1521;53.584;9.938;2023-03-01T04:46:16;0.70;1.00
3023;DHT22;1521;53.584;9.938;2023-03-01T04:48:43;0.80;1.00
3023;DHT22;1521;53.584;9.938;2023-03-01T04:51:09;0.80;1.00
3023;DHT22;1521;53.584;9.938;2023-03-01T04:53:35;0.80;1.00
3023;DHT22;1521;53.584;9.938;2023-03-01T04:56:03;0.80;1.00
3023;DHT22;1521;53.584;9.938;2023-03-01T04:58:29;0.80;1.00
3023;DHT22;1521;53.584;9.938;2023-03-01T05:00:55;0.80;1.00
3023;DHT22;1521;53.584;9.938;2023-03-01T05:03:21;0.90;1.00
3023;DHT22;1521;53.584;9.938;2023-03-01T05:05:50;0.90;1.00
3023;DHT22;1521;53.584;9.938;2023-03-01T05:08:15;0.90;1.00
3023;DHT22;1521;53.584;9.938;2023-03-01T05:10:51;0.90;1.00
3023;DHT22;1521;53.584;9.938;2023-03-01T05:13:18;0.90;1.00
3023;DHT22;1521;53.584;9.938;2023-03-01T05:15:48;0.90;1.00
3023;DHT22;1521;53.584;9.938;2023-03-01T05:18:14;0.90;1.00
3023;DHT22;1521;53.584;9.938;2023-03-01T05:20:40;0.90;1.00
3023;DHT22;1521;53.584;9.938;2023-03-01T05:23:06;1.00;1.00
3023;DHT22;1521;53.584;9.938;2023-03-01T05:25:33;0.90;1.00
3023;DHT22;1521;53.584;9.938;2023-03-01T05:28:00;0.90;1.00
3023;DHT22;1521;53.584;9.938;2023-03-01T05:30:33;1.00;1.00
3023;DHT22;1521;53.584;9.938;2023-03-01T05:33:00;0.90;1.00
3023;DHT22;1521;53.584;9.938;2023-03-01T05:35:26;1.00;1.00
3023;DHT22;1521;53.584;9.938;2023-03-01T05:37:52;1.00;1.00
3023;DHT22;1521;53.584;9.938;2023-03-01T05:40:21;1.00;1.00
3023;DHT22;1521;53.584;9.938;2023-03-01T05:42:49;1.00;1.00
3023;DHT22;1521;53.584;9.938;2023-03-01T05:45:16;1.00;1.00
3023;DHT22;1521;53.584;9.938;2023-03-01T05:47:43;1.00;1.00
3023;DHT22;1521;53.584;9.938;2023-03-01T05:50:23;1.10;1.00
3023;DHT22;1521;53.584;9.938;2023-03-01T05:52:56;1.10;1.00
3023;DHT22;1521;53.584;9.938;2023-03-01T05:55:22;1.10;1.00
3023;DHT22;1521;53.584;9.938;2023-03-01T05:57:48;1.10;1.00
3023;DHT22;1521;53.584;9.938;2023-03-01T06:00:16;1.10;1.00
3023;DHT22;1521;53.584;9.938;2023-03-01T06:02:43;1.10;1.00
3023;DHT22;1521;53.584;9.938;2023-03-01T06:05:10;1.10;1.00
3023;DHT22;1521;53.584;9.938;2023-03-01T06:07:36;1.10;1.00
3023;DHT22;1521;53.584;9.938;2023-03-01T06:10:03;1.00;1.00
3023;DHT22;1521;53.584;9.938;2023-03-01T06:12:36;1.00;1.00
3023;DHT22;1521;53.584;9.938;2023-03-01T06:15:03;1.00;1.00
3023;DHT22;1521;53.584;9.938;2023-03-01T06:17:31;1.10;1.00
3023;DHT22;1521;53.584;9.938;2023-03-01T06:19:57;1.10;1.00
3023;DHT22;1521;53.584;9.938;2023-03-01T06:22:23;1.10;1.00
3023;DHT22;1521;53.584;9.938;2023-03-01T06:24:49;1.20;1.00
3023;DHT22;1521;53.584;9.938;2023-03-01T06:27:15;1.20;1.00
3023;DHT22;1521;53.584;9.938;2023-03-01T06:29:41;1.20;1.00
3023;DHT22;1521;53.584;9.938;2023-03-01T06:32:06;1.20;1.00
3023;DHT22;1521;53.584;9.938;2023-03-01T06:34:33;1.20;1.00
3023;DHT22;1521;53.584;9.938;2023-03-01T06:36:59;1.20;1.00
3023;DHT22;1521;53.584;9.938;2023-03-01T06:39:24;1.20;1.00
3023;DHT22;1521;53.584;9.938;2023-03-01T06:41:50;1.20;1.00
3023;DHT22;1521;53.584;9.938;2023-03-01T06:44:15;1.20;1.00
3023;DHT22;1521;53.584;9.938;2023-03-01T06:46:41;1.20;1.00
3023;DHT22;1521;53.584;9.938;2023-03-01T06:49:07;1.30;1.00
3023;DHT22;1521;53.584;9.938;2023-03-01T06:51:35;1.40;1.00
3023;DHT22;1521;53.584;9.938;2023-03-01T06:54:02;1.40;1.00
3023;DHT22;1521;53.584;9.938;2023-03-01T06:56:28;1.50;1.00
3023;DHT22;1521;53.584;9.938;2023-03-01T06:58:54;1.60;1.00
3023;DHT22;1521;53.584;9.938;2023-03-01T07:01:19;1.70;1.00
3023;DHT22;1521;53.584;9.938;2023-03-01T07:03:45;1.70;1.00
3023;DHT22;1521;53.584;9.938;2023-03-01T07:06:11;1.80;1.00
3023;DHT22;1521;53.584;9.938;2023-03-01T07:08:37;1.80;1.00
3023;DHT22;1521;53.584;9.938;2023-03-01T07:11:02;1.90;1.00
3023;DHT22;1521;53.584;9.938;2023-03-01T07:13:29;1.90;1.00
3023;DHT22;1521;53.584;9.938;2023-03-01T07:15:55;2.00;1.00
3023;DHT22;1521;53.584;9.938;2023-03-01T07:18:20;2.10;1.00
3023;DHT22;1521;53.584;9.938;2023-03-01T07:20:46;2.20;1.00
3023;DHT22;1521;53.584;9.938;2023-03-01T07:23:11;2.20;1.00
3023;DHT22;1521;53.584;9.938;2023-03-01T07:25:37;2.30;1.00
3023;DHT22;1521;53.584;9.938;2023-03-01T07:28:03;2.40;1.00
3023;DHT22;1521;53.584;9.938;2023-03-01T07:30:28;2.40;1.00
3023;DHT22;1521;53.584;9.938;2023-03-01T07:32:55;2.50;1.00
3023;DHT22;1521;53.584;9.938;2023-03-01T07:35:21;2.50;1.00
3023;DHT22;1521;53.584;9.938;2023-03-01T07:37:47;2.60;1.00
3023;DHT22;1521;53.584;9.938;2023-03-01T07:40:13;2.60;1.00
3023;DHT22;1521;53.584;9.938;2023-03-01T07:42:39;2.60;1.00
3023;DHT22;1521;53.584;9.938;2023-03-01T07:45:05;2.60;1.00
3023;DHT22;1521;53.584;9.938;2023-03-01T07:47:31;2.70;1.00
3023;DHT22;1521;53.584;9.938;2023-03-01T07:49:57;2.80;1.00
3023;DHT22;1521;53.584;9.938;2023-03-01T07:52:23;2.80;1.00
3023;DHT22;1521;53.584;9.938;2023-03-01T07:54:48;2.90;1.00
3023;DHT22;1521;53.584;9.938;2023-03-01T07:57:14;3.00;1.00
3023;DHT22;1521;53.584;9.938;2023-03-01T07:59:40;3.20;1.00
3023;DHT22;1521;53.584;9.938;2023-03-01T08:02:05;3.40;1.00
3023;DHT22;1521;53.584;9.938;2023-03-01T08:04:32;3.80;1.00
3023;DHT22;1521;53.584;9.938;2023-03-01T08:06:58;4.10;1.00
3023;DHT22;1521;53.584;9.938;2023-03-01T08:09:24;4.50;1.00
3023;DHT22;1521;53.584;9.938;2023-03-01T08:11:50;4.80;1.00
3023;DHT22;1521;53.584;9.938;2023-03-01T08:14:15;5.20;1.00
3023;DHT22;1521;53.584;9.938;2023-03-01T08:16:41;5.60;1.00
3023;DHT22;1521;53.584;9.938;2023-03-01T08:19:08;5.50;1.00
3023;DHT22;1521;53.584;9.938;2023-03-01T08:21:34;5.60;1.00
3023;DHT22;1521;53.584;9.938;2023-03-01T08:24:01;5.50;1.00
3023;DHT22;1521;53.584;9.938;2023-03-01T08:26:27;5.40;1.00
3023;DHT22;1521;53.584;9.938;2023-03-01T08:28:52;5.00;1.00
3023;DHT22;1521;53.584;9.938;2023-03-01T08:31:21;4.80;1.00
3023;DHT22;1521;53.584;9.938;2023-03-01T08:33:48;4.80;1.00
3023;DHT22;1521;53.584;9.938;2023-03-01T08:36:17;4.80;1.00
3023;DHT22;1521;53.584;9.938;2023-03-01T08:38:43;4.90;1.00
3023;DHT22;1521;53.584;9.938;2023-03-01T08:41:09;5.10;1.00
3023;DHT22;1521;53.584;9.938;2023-03-01T08:43:34;5.40;1.00
3023;DHT22;1521;53.584;9.938;2023-03-01T08:46:00;5.80;1.00
3023;DHT22;1521;53.584;9.938;2023-03-01T08:48:28;5.80;1.00
3023;DHT22;1521;53.584;9.938;2023-03-01T08:50:53;5.70;1.00
3023;DHT22;1521;53.584;9.938;2023-03-01T08:53:19;5.80;1.00
3023;DHT22;1521;53.584;9.938;2023-03-01T08:55:44;5.80;1.00
3023;DHT22;1521;53.584;9.938;2023-03-01T08:58:10;6.00;1.00
3023;DHT22;1521;53.584;9.938;2023-03-01T09:00:36;6.20;1.00
3023;DHT22;1521;53.584;9.938;2023-03-01T09:03:01;6.20;1.00
3023;DHT22;1521;53.584;9.938;2023-03-01T09:05:27;6.20;1.00
3023;DHT22;1521;53.584;9.938;2023-03-01T09:07:53;5.90;1.00
3023;DHT22;1521;53.584;9.938;2023-03-01T09:10:18;5.90;1.00
3023;DHT22;1521;53.584;9.938;2023-03-01T09:12:44;5.90;1.00
3023;DHT22;1521;53.584;9.938;2023-03-01T09:15:10;5.80;1.00
3023;DHT22;1521;53.584;9.938;2023-03-01T09:17:36;5.60;1.00
3023;DHT22;1521;53.584;9.938;2023-03-01T09:20:01;5.70;1.00
3023;DHT22;1521;53.584;9.938;2023-03-01T09:22:27;5.60;1.00
3023;DHT22;1521;53.584;9.938;2023-03-01T09:24:52;5.60;1.00
3023;DHT22;1521;53.584;9.938;2023-03-01T09:27:18;5.60;1.00
3023;DHT22;1521;53.584;9.938;2023-03-01T09:29:45;5.60;1.00
3023;DHT22;1521;53.584;9.938;2023-03-01T09:32:10;5.60;1.00
3023;DHT22;1521;53.584;9.938;2023-03-01T09:34:36;5.60;1.00
3023;DHT22;1521;53.584;9.938;2023-03-01T09:37:22;5.60;1.00
3023;DHT22;1521;53.584;9.938;2023-03-01T09:39:47;5.70;1.00
3023;DHT22;1521;53.584;9.938;2023-03-01T09:42:13;5.60;1.00
3023;DHT22;1521;53.584;9.938;2023-03-01T09:44:56;5.60;1.00
3023;DHT22;1521;53.584;9.938;2023-03-01T09:47:28;5.70;1.00
3023;DHT22;1521;53.584;9.938;2023-03-01T09:50:15;5.80;1.00
3023;DHT22;1521;53.584;9.938;2023-03-01T09:55:13;6.30;1.00
3023;DHT22;1521;53.584;9.938;2023-03-01T10:00:41;6.50;1.00
3023;DHT22;1521;53.584;9.938;2023-03-01T10:03:17;6.70;1.00
3023;DHT22;1521;53.584;9.938;2023-03-01T10:08:56;6.90;1.00
3023;DHT22;1521;53.584;9.938;2023-03-01T10:11:27;6.90;1.00
3023;DHT22;1521;53.584;9.938;2023-03-01T10:14:24;7.00;1.00
3023;DHT22;1521;53.584;9.938;2023-03-01T10:17:00;7.00;1.00
3023;DHT22;1521;53.584;9.938;2023-03-01T10:19:36;7.20;1.00
3023;DHT22;1521;53.584;9.938;2023-03-01T10:22:18;7.20;1.00
3023;DHT22;1521;53.584;9.938;2023-03-01T10:24:46;7.30;1.00
3023;DHT22;1521;53.584;9.938;2023-03-01T10:27:29;7.60;1.00
3023;DHT22;1521;53.584;9.938;2023-03-01T10:30:10;7.70;1.00
3023;DHT22;1521;53.584;9.938;2023-03-01T10:32:39;8.20;1.00
3023;DHT22;1521;53.584;9.938;2023-03-01T10:38:06;8.40;1.00
3023;DHT22;1521;53.584;9.938;2023-03-01T10:40:34;8.20;1.00
3023;DHT22;1521;53.584;9.938;2023-03-01T10:43:05;8.30;1.00
3023;DHT22;1521;53.584;9.938;2023-03-01T10:45:38;8.40;1.00
3023;DHT22;1521;53.584;9.938;2023-03-01T10:50:40;8.60;1.00
3023;DHT22;1521;53.584;9.938;2023-03-01T10:53:27;8.80;1.00
3023;DHT22;1521;53.584;9.938;2023-03-01T10:56:13;8.90;1.00
3023;DHT22;1521;53.584;9.938;2023-03-01T10:58:56;9.20;1.00
3023;DHT22;1521;53.584;9.938;2023-03-01T11:01:33;9.70;1.00
3023;DHT22;1521;53.584;9.938;2023-03-01T11:04:18;9.90;1.00
3023;DHT22;1521;53.584;9.938;2023-03-01T11:06:43;9.80;1.00
3023;DHT22;1521;53.584;9.938;2023-03-01T11:09:23;10.10;1.00
3023;DHT22;1521;53.584;9.938;2023-03-01T11:11:57;10.60;1.00
3023;DHT22;1521;53.584;9.938;2023-03-01T11:14:25;11.10;1.00
3023;DHT22;1521;53.584;9.938;2023-03-01T11:17:11;11.60;1.00
3023;DHT22;1521;53.584;9.938;2023-03-01T11:19:38;11.80;1.00
3023;DHT22;1521;53.584;9.938;2023-03-01T11:22:12;12.20;1.00
3023;DHT22;1521;53.584;9.938;2023-03-01T11:24:43;12.50;1.00
3023;DHT22;1521;53.584;9.938;2023-03-01T11:29:57;13.60;1.00
3023;DHT22;1521;53.584;9.938;2023-03-01T11:32:27;14.40;1.00
3023;DHT22;1521;53.584;9.938;2023-03-01T11:35:18;14.80;1.00
3023;DHT22;1521;53.584;9.938;2023-03-01T11:40:40;15.50;1.00
3023;DHT22;1521;53.584;9.938;2023-03-01T12:17:26;17.40;1.00
3023;DHT22;1521;53.584;9.938;2023-03-01T12:28:45;17.50;1.00
3023;DHT22;1521;53.584;9.938;2023-03-01T12:34:26;17.70;1.00
3023;DHT22;1521;53.584;9.938;2023-03-01T12:42:35;17.60;1.00
3023;DHT22;1521;53.584;9.938;2023-03-01T12:50:23;17.50;99.90
3023;DHT22;1521;53.584;9.938;2023-03-01T12:55:41;17.60;99.90
3023;DHT22;1521;53.584;9.938;2023-03-01T12:58:31;17.60;99.90
3023;DHT22;1521;53.584;9.938;2023-03-01T13:08:59;17.30;1.00
3023;DHT22;1521;53.584;9.938;2023-03-01T13:11:27;17.40;99.90
3023;DHT22;1521;53.584;9.938;2023-03-01T13:16:52;17.50;99.90
3023;DHT22;1521;53.584;9.938;2023-03-01T13:19:25;17.40;99.90
3023;DHT22;1521;53.584;9.938;2023-03-01T13:21:53;16.70;99.90
3023;DHT22;1521;53.584;9.938;2023-03-01T13:24:38;16.30;99.90
3023;DHT22;1521;53.584;9.938;2023-03-01T13:32:41;15.70;99.90
3023;DHT22;1521;53.584;9.938;2023-03-01T13:37:45;15.80;1.00
3023;DHT22;1521;53.584;9.938;2023-03-01T13:42:49;15.90;1.00
3023;DHT22;1521;53.584;9.938;2023-03-01T13:45:36;15.90;1.00
3023;DHT22;1521;53.584;9.938;2023-03-01T13:50:52;15.80;1.00
3023;DHT22;1521;53.584;9.938;2023-03-01T13:53:21;15.90;99.90
3023;DHT22;1521;53.584;9.938;2023-03-01T13:55:51;15.90;99.90
3023;DHT22;1521;53.584;9.938;2023-03-01T14:01:03;15.50;99.90
3023;DHT22;1521;53.584;9.938;2023-03-01T14:03:30;15.10;99.90
3023;DHT22;1521;53.584;9.938;2023-03-01T14:08:27;14.70;1.00
3023;DHT22;1521;53.584;9.938;2023-03-01T14:14:05;14.80;1.00
3023;DHT22;1521;53.584;9.938;2023-03-01T14:19:26;15.10;99.90
3023;DHT22;1521;53.584;9.938;2023-03-01T14:24:29;14.30;1.00
3023;DHT22;1521;53.584;9.938;2023-03-01T14:26:58;14.30;1.00
3023;DHT22;1521;53.584;9.938;2023-03-01T14:29:25;14.30;1.00
3023;DHT22;1521;53.584;9.938;2023-03-01T14:31:51;14.30;1.00
3023;DHT22;1521;53.584;9.938;2023-03-01T14:34:22;14.30;1.00
3023;DHT22;1521;53.584;9.938;2023-03-01T14:36:47;14.40;1.00
3023;DHT22;1521;53.584;9.938;2023-03-01T14:39:24;14.40;1.00
3023;DHT22;1521;53.584;9.938;2023-03-01T14:41:52;14.30;1.00
3023;DHT22;1521;53.584;9.938;2023-03-01T14:44:22;13.80;1.00
3023;DHT22;1521;53.584;9.938;2023-03-01T14:46:52;13.30;1.00
3023;DHT22;1521;53.584;9.938;2023-03-01T14:49:24;12.90;1.00
3023;DHT22;1521;53.584;9.938;2023-03-01T14:52:03;12.70;1.00
3023;DHT22;1521;53.584;9.938;2023-03-01T14:54:43;12.30;1.00
3023;DHT22;1521;53.584;9.938;2023-03-01T14:57:15;12.10;1.00
3023;DHT22;1521;53.584;9.938;2023-03-01T14:59:42;11.80;1.00
3023;DHT22;1521;53.584;9.938;2023-03-01T15:02:14;11.10;1.00
3023;DHT22;1521;53.584;9.938;2023-03-01T15:04:43;10.30;1.00
3023;DHT22;1521;53.584;9.938;2023-03-01T15:07:12;9.80;1.00
3023;DHT22;1521;53.584;9.938;2023-03-01T15:09:40;9.30;1.00
3023;DHT22;1521;53.584;9.938;2023-03-01T15:12:45;8.90;1.00
3023;DHT22;1521;53.584;9.938;2023-03-01T15:17:55;8.40;1.00
3023;DHT22;1521;53.584;9.938;2023-03-01T15:20:24;8.30;1.00
3023;DHT22;1521;53.584;9.938;2023-03-01T15:22:52;8.20;1.00
3023;DHT22;1521;53.584;9.938;2023-03-01T15:25:19;8.00;1.00
3023;DHT22;1521;53.584;9.938;2023-03-01T15:27:47;7.80;1.00
3023;DHT22;1521;53.584;9.938;2023-03-01T15:30:18;7.60;1.00
3023;DHT22;1521;53.584;9.938;2023-03-01T15:32:45;7.50;1.00
3023;DHT22;1521;53.584;9.938;2023-03-01T15:35:37;7.40;1.00
3023;DHT22;1521;53.584;9.938;2023-03-01T15:38:22;7.20;1.00
3023;DHT22;1521;53.584;9.938;2023-03-01T15:40:51;7.20;1.00
3023;DHT22;1521;53.584;9.938;2023-03-01T15:43:45;7.10;1.00
3023;DHT22;1521;53.584;9.938;2023-03-01T15:46:18;7.00;1.00
3023;DHT22;1521;53.584;9.938;2023-03-01T15:48:48;7.00;1.00
3023;DHT22;1521;53.584;9.938;2023-03-01T15:51:15;6.90;1.00
3023;DHT22;1521;53.584;9.938;2023-03-01T15:53:43;6.70;1.00
3023;DHT22;1521;53.584;9.938;2023-03-01T15:56:13;6.80;1.00
3023;DHT22;1521;53.584;9.938;2023-03-01T15:58:39;6.80;1.00
3023;DHT22;1521;53.584;9.938;2023-03-01T16:01:12;6.70;1.00
3023;DHT22;1521;53.584;9.938;2023-03-01T16:03:38;6.60;1.00
3023;DHT22;1521;53.584;9.938;2023-03-01T16:06:03;6.50;1.00
3023;DHT22;1521;53.584;9.938;2023-03-01T16:08:29;6.50;1.00
3023;DHT22;1521;53.584;9.938;2023-03-01T16:10:55;6.40;1.00
3023;DHT22;1521;53.584;9.938;2023-03-01T16:13:20;6.40;1.00
3023;DHT22;1521;53.584;9.938;2023-03-01T16:15:46;6.30;1.00
3023;DHT22;1521;53.584;9.938;2023-03-01T16:18:12;6.20;1.00
3023;DHT22;1521;53.584;9.938;2023-03-01T16:20:37;6.20;1.00
3023;DHT22;1521;53.584;9.938;2023-03-01T16:23:05;6.10;1.00
3023;DHT22;1521;53.584;9.938;2023-03-01T16:25:32;6.00;1.00
3023;DHT22;1521;53.584;9.938;2023-03-01T16:27:58;5.90;1.00
3023;DHT22;1521;53.584;9.938;2023-03-01T16:30:26;5.80;1.00
3023;DHT22;1521;53.584;9.938;2023-03-01T16:32:52;5.70;1.00
3023;DHT22;1521;53.584;9.938;2023-03-01T16:35:20;5.70;1.00
3023;DHT22;1521;53.584;9.938;2023-03-01T16:37:47;5.60;1.00
3023;DHT22;1521;53.584;9.938;2023-03-01T16:40:18;5.50;1.00
3023;DHT22;1521;53.584;9.938;2023-03-01T16:42:49;5.40;1.00
3023;DHT22;1521;53.584;9.938;2023-03-01T16:45:15;5.30;1.00
3023;DHT22;1521;53.584;9.938;2023-03-01T16:47:41;5.30;1.00
3023;DHT22;1521;53.584;9.938;2023-03-01T16:50:07;5.30;1.00
3023;DHT22;1521;53.584;9.938;2023-03-01T16:52:33;5.20;1.00
3023;DHT22;1521;53.584;9.938;2023-03-01T16:54:59;5.10;1.00
3023;DHT22;1521;53.584;9.938;2023-03-01T16:57:25;5.00;1.00
3023;DHT22;1521;53.584;9.938;2023-03-01T16:59:53;4.90;1.00
3023;DHT22;1521;53.584;9.938;2023-03-01T17:02:19;4.80;1.00
3023;DHT22;1521;53.584;9.938;2023-03-01T17:04:51;4.80;1.00
3023;DHT22;1521;53.584;9.938;2023-03-01T17:07:17;4.70;1.00
3023;DHT22;1521;53.584;9.938;2023-03-01T17:09:42;4.60;1.00
3023;DHT22;1521;53.584;9.938;2023-03-01T17:12:08;4.60;1.00
3023;DHT22;1521;53.584;9.938;2023-03-01T17:14:34;4.50;1.00
3023;DHT22;1521;53.584;9.938;2023-03-01T17:17:00;4.40;1.00
3023;DHT22;1521;53.584;9.938;2023-03-01T17:19:27;4.30;1.00
3023;DHT22;1521;53.584;9.938;2023-03-01T17:21:54;4.30;1.00
3023;DHT22;1521;53.584;9.938;2023-03-01T17:24:19;4.20;1.00
3023;DHT22;1521;53.584;9.938;2023-03-01T17:26:45;4.10;1.00
3023;DHT22;1521;53.584;9.938;2023-03-01T17:29:11;4.10;1.00
3023;DHT22;1521;53.584;9.938;2023-03-01T17:31:38;4.00;1.00
3023;DHT22;1521;53.584;9.938;2023-03-01T17:34:03;3.90;1.00
3023;DHT22;1521;53.584;9.938;2023-03-01T17:36:29;3.90;1.00
3023;DHT22;1521;53.584;9.938;2023-03-01T17:38:55;3.80;1.00
3023;DHT22;1521;53.584;9.938;2023-03-01T17:41:21;3.70;1.00
3023;DHT22;1521;53.584;9.938;2023-03-01T17:43:48;3.70;1.00
3023;DHT22;1521;53.584;9.938;2023-03-01T17:46:14;3.60;1.00
3023;DHT22;1521;53.584;9.938;2023-03-01T17:48:40;3.60;1.00
3023;DHT22;1521;53.584;9.938;2023-03-01T17:51:10;3.50;1.00
3023;DHT22;1521;53.584;9.938;2023-03-01T17:53:36;3.40;1.00
3023;DHT22;1521;53.584;9.938;2023-03-01T17:56:04;3.40;1.00
3023;DHT22;1521;53.584;9.938;2023-03-01T17:58:30;3.40;3.80
3023;DHT22;1521;53.584;9.938;2023-03-01T18:01:09;3.40;35.20
3023;DHT22;1521;53.584;9.938;2023-03-01T18:03:35;3.50;99.60
3023;DHT22;1521;53.584;9.938;2023-03-01T18:06:01;3.50;99.90
3023;DHT22;1521;53.584;9.938;2023-03-01T18:08:26;3.60;99.90
3023;DHT22;1521;53.584;9.938;2023-03-01T18:10:58;3.50;99.90
3023;DHT22;1521;53.584;9.938;2023-03-01T18:13:24;3.40;99.90
3023;DHT22;1521;53.584;9.938;2023-03-01T18:15:50;3.40;99.90
3023;DHT22;1521;53.584;9.938;2023-03-01T18:18:15;3.30;99.90
3023;DHT22;1521;53.584;9.938;2023-03-01T18:20:41;3.10;99.90
3023;DHT22;1521;53.584;9.938;2023-03-01T18:23:06;3.00;99.90
3023;DHT22;1521;53.584;9.938;2023-03-01T18:25:32;2.90;99.90
3023;DHT22;1521;53.584;9.938;2023-03-01T18:27:58;2.90;99.90
3023;DHT22;1521;53.584;9.938;2023-03-01T18:30:25;2.80;99.90
3023;DHT22;1521;53.584;9.938;2023-03-01T18:32:51;2.70;1.00
3023;DHT22;1521;53.584;9.938;2023-03-01T18:35:21;2.70;1.00
3023;DHT22;1521;53.584;9.938;2023-03-01T18:37:47;2.70;1.00
3023;DHT22;1521;53.584;9.938;2023-03-01T18:40:14;2.60;1.00
3023;DHT22;1521;53.584;9.938;2023-03-01T18:42:39;2.60;1.00
3023;DHT22;1521;53.584;9.938;2023-03-01T18:45:06;2.50;1.00
3023;DHT22;1521;53.584;9.938;2023-03-01T18:47:31;2.30;1.00